sensor_id;sensor_type;location;lat;lon;timestamp;pressure;altitude;pressure_sealevel;temperature;humidity
72587;BME280;60621;49.576;11.024;2023-01-16T00:00:29;97250.38;;;3.33;71.79
72587;BME280;60621;49.576;11.024;2023-01-16T00:01:31;97241.59;;;3.26;72.66
72587;BME280;60621;49.576;11.024;2023-01-16T00:02:33;97239.75;;;3.26;72.00
72587;BME280;60621;49.576;11.024;2023-01-16T00:03:34;97232.91;;;3.22;72.43
72587;BME280;60621;49.576;11.024;2023-01-16T00:04:36;97237.38;;;3.21;72.29
72587;BME280;60621;49.576;11.024;2023-01-16T00:05:38;97236.97;;;3.19;72.70
72587;BME280;60621;49.576;11.024;2023-01-16T00:06:39;97234.00;;;3.21;72.82
72587;BME280;60621;49.576;11.024;2023-01-16T00:07:41;97236.00;;;3.12;72.88
72587;BME280;60621;49.576;11.024;2023-01-16T00:08:43;97223.56;;;2.93;73.28
72587;BME280;60621;49.576;11.024;2023-01-16T00:09:45;97230.50;;;3.01;72.94
72587;BME280;60621;49.576;11.024;2023-01-16T00:10:46;97225.81;;;3.06;72.85
72587;BME280;60621;49.576;11.024;2023-01-16T00:11:48;97223.19;;;3.06;73.36
72587;BME280;60621;49.576;11.024;2023-01-16T00:12:49;97218.41;;;3.08;72.32
72587;BME280;60621;49.576;11.024;2023-01-16T00:13:51;97216.72;;;2.88;73.38
72587;BME280;60621;49.576;11.024;2023-01-16T00:14:52;97217.59;;;2.92;72.94
72587;BME280;60621;49.576;11.024;2023-01-16T00:15:54;97220.63;;;2.94;73.79
72587;BME280;60621;49.576;11.024;2023-01-16T00:16:55;97215.97;;;3.00;73.61
72587;BME280;60621;49.576;11.024;2023-01-16T00:17:57;97211.81;;;2.99;73.12
72587;BME280;60621;49.576;11.024;2023-01-16T00:18:58;97214.09;;;3.00;72.96
72587;BME280;60621;49.576;11.024;2023-01-16T00:20:00;97211.91;;;3.02;73.02
72587;BME280;60621;49.576;11.024;2023-01-16T00:21:02;97210.16;;;3.06;72.84
72587;BME280;60621;49.576;11.024;2023-01-16T00:22:04;97209.53;;;2.97;72.89
72587;BME280;60621;49.576;11.024;2023-01-16T00:23:05;97210.81;;;3.03;73.15
72587;BME280;60621;49.576;11.024;2023-01-16T00:24:07;97209.84;;;3.08;73.03
72587;BME280;60621;49.576;11.024;2023-01-16T00:25:10;97210.78;;;3.16;73.00
72587;BME280;60621;49.576;11.024;2023-01-16T00:26:11;97203.88;;;3.07;73.15
72587;BME280;60621;49.576;11.024;2023-01-16T00:27:13;97203.44;;;3.05;72.77
72587;BME280;60621;49.576;11.024;2023-01-16T00:28:15;97204.34;;;2.97;73.01
72587;BME280;60621;49.576;11.024;2023-01-16T00:29:16;97203.31;;;2.74;73.43
72587;BME280;60621;49.576;11.024;2023-01-16T00:30:19;97206.59;;;2.71;74.56
72587;BME280;60621;49.576;11.024;2023-01-16T00:31:21;97201.53;;;2.90;73.84
72587;BME280;60621;49.576;11.024;2023-01-16T00:32:24;97198.72;;;2.83;73.49
72587;BME280;60621;49.576;11.024;2023-01-16T00:33:26;97202.22;;;2.75;74.07
72587;BME280;60621;49.576;11.024;2023-01-16T00:34:27;97194.75;;;2.73;74.47
72587;BME280;60621;49.576;11.024;2023-01-16T00:35:29;97194.94;;;2.80;74.34
72587;BME280;60621;49.576;11.024;2023-01-16T00:36:31;97187.31;;;2.88;73.67
72587;BME280;60621;49.576;11.024;2023-01-16T00:37:32;97194.66;;;2.98;73.78
72587;BME280;60621;49.576;11.024;2023-01-16T00:38:34;97186.31;;;3.04;73.14
72587;BME280;60621;49.576;11.024;2023-01-16T00:39:36;97187.13;;;3.08;72.99
72587;BME280;60621;49.576;11.024;2023-01-16T00:40:39;97191.69;;;3.12;72.95
72587;BME280;60621;49.576;11.024;2023-01-16T00:41:41;97183.00;;;3.07;72.97
72587;BME280;60621;49.576;11.024;2023-01-16T00:42:42;97188.06;;;3.00;73.26
72587;BME280;60621;49.576;11.024;2023-01-16T00:43:43;97181.00;;;3.01;73.03
72587;BME280;60621;49.576;11.024;2023-01-16T00:44:45;97178.81;;;3.03;72.86
72587;BME280;60621;49.576;11.024;2023-01-16T00:45:47;97181.34;;;2.99;72.66
72587;BME280;60621;49.576;11.024;2023-01-16T00:46:48;97177.19;;;2.98;73.42
72587;BME280;60621;49.576;11.024;2023-01-16T00:47:50;97173.13;;;3.13;72.18
72587;BME280;60621;49.576;11.024;2023-01-16T00:48:51;97177.28;;;3.02;72.76
72587;BME280;60621;49.576;11.024;2023-01-16T00:49:53;97172.97;;;2.94;72.43
72587;BME280;60621;49.576;11.024;2023-01-16T00:50:55;97174.63;;;2.86;73.64
72587;BME280;60621;49.576;11.024;2023-01-16T00:51:56;97174.28;;;2.88;73.72
72587;BME280;60621;49.576;11.024;2023-01-16T00:52:58;97177.34;;;2.90;73.07
72587;BME280;60621;49.576;11.024;2023-01-16T00:53:59;97170.69;;;2.92;73.21
72587;BME280;60621;49.576;11.024;2023-01-16T00:55:01;97167.69;;;2.90;73.66
72587;BME280;60621;49.576;11.024;2023-01-16T00:56:02;97165.91;;;2.94;72.76
72587;BME280;60621;49.576;11.024;2023-01-16T00:57:04;97160.31;;;2.80;72.91
72587;BME280;60621;49.576;11.024;2023-01-16T00:58:05;97161.31;;;2.75;73.73
72587;BME280;60621;49.576;11.024;2023-01-16T00:59:07;97156.53;;;2.77;73.83
72587;BME280;60621;49.576;11.024;2023-01-16T01:00:09;97159.56;;;2.79;73.46
72587;BME280;60621;49.576;11.024;2023-01-16T01:01:11;97155.34;;;2.75;74.02
72587;BME280;60621;49.576;11.024;2023-01-16T01:02:15;97153.69;;;2.82;73.33
72587;BME280;60621;49.576;11.024;2023-01-16T01:03:17;97155.22;;;2.83;73.34
72587;BME280;60621;49.576;11.024;2023-01-16T01:04:18;97150.44;;;2.86;73.49
72587;BME280;60621;49.576;11.024;2023-01-16T01:05:20;97146.47;;;2.76;73.67
72587;BME280;60621;49.576;11.024;2023-01-16T01:06:21;97148.59;;;2.86;73.42
72587;BME280;60621;49.576;11.024;2023-01-16T01:07:23;97150.38;;;2.98;73.56
72587;BME280;60621;49.576;11.024;2023-01-16T01:08:25;97146.91;;;2.94;73.33
72587;BME280;60621;49.576;11.024;2023-01-16T01:09:26;97140.06;;;3.01;72.64
72587;BME280;60621;49.576;11.024;2023-01-16T01:10:28;97134.50;;;3.03;72.90
72587;BME280;60621;49.576;11.024;2023-01-16T01:11:29;97134.72;;;3.10;72.29
72587;BME280;60621;49.576;11.024;2023-01-16T01:12:31;97135.19;;;3.00;72.36
72587;BME280;60621;49.576;11.024;2023-01-16T01:13:32;97134.25;;;3.08;72.47
72587;BME280;60621;49.576;11.024;2023-01-16T01:14:34;97138.16;;;2.86;73.21
72587;BME280;60621;49.576;11.024;2023-01-16T01:15:36;97138.16;;;2.86;72.97
72587;BME280;60621;49.576;11.024;2023-01-16T01:16:38;97136.84;;;2.92;72.64
72587;BME280;60621;49.576;11.024;2023-01-16T01:17:41;97128.38;;;2.95;73.13
72587;BME280;60621;49.576;11.024;2023-01-16T01:18:43;97135.31;;;2.91;72.48
72587;BME280;60621;49.576;11.024;2023-01-16T01:19:45;97135.03;;;2.80;72.58
72587;BME280;60621;49.576;11.024;2023-01-16T01:20:46;97129.25;;;2.87;72.74
72587;BME280;60621;49.576;11.024;2023-01-16T01:21:48;97134.38;;;2.83;72.91
72587;BME280;60621;49.576;11.024;2023-01-16T01:22:49;97133.94;;;2.81;72.63
72587;BME280;60621;49.576;11.024;2023-01-16T01:23:51;97139.16;;;2.81;72.63
72587;BME280;60621;49.576;11.024;2023-01-16T01:24:52;97133.28;;;2.85;72.88
72587;BME280;60621;49.576;11.024;2023-01-16T01:25:54;97135.66;;;2.90;72.63
72587;BME280;60621;49.576;11.024;2023-01-16T01:26:58;97136.84;;;2.92;72.38
72587;BME280;60621;49.576;11.024;2023-01-16T01:27:59;97135.56;;;2.86;73.22
72587;BME280;60621;49.576;11.024;2023-01-16T01:29:01;97134.34;;;2.96;72.23
72587;BME280;60621;49.576;11.024;2023-01-16T01:30:03;97129.78;;;2.93;71.93
72587;BME280;60621;49.576;11.024;2023-01-16T01:31:06;97128.91;;;2.89;72.60
72587;BME280;60621;49.576;11.024;2023-01-16T01:32:10;97119.88;;;2.98;72.47
72587;BME280;60621;49.576;11.024;2023-01-16T01:33:12;97123.09;;;3.07;71.75
72587;BME280;60621;49.576;11.024;2023-01-16T01:34:14;97123.94;;;3.12;71.96
72587;BME280;60621;49.576;11.024;2023-01-16T01:35:16;97119.38;;;3.08;71.97
72587;BME280;60621;49.576;11.024;2023-01-16T01:36:19;97114.41;;;3.03;71.69
72587;BME280;60621;49.576;11.024;2023-01-16T01:37:21;97116.63;;;3.01;71.71
72587;BME280;60621;49.576;11.024;2023-01-16T01:38:22;97110.75;;;3.04;72.02
72587;BME280;60621;49.576;11.024;2023-01-16T01:39:24;97108.75;;;3.14;71.51
72587;BME280;60621;49.576;11.024;2023-01-16T01:40:25;97109.81;;;3.13;71.62
72587;BME280;60621;49.576;11.024;2023-01-16T01:41:27;97104.69;;;3.16;71.59
72587;BME280;60621;49.576;11.024;2023-01-16T01:42:28;97100.75;;;3.22;71.04
72587;BME280;60621;49.576;11.024;2023-01-16T01:43:49;97093.03;;;3.26;71.16
72587;BME280;60621;49.576;11.024;2023-01-16T01:44:52;97095.06;;;3.32;71.02
72587;BME280;60621;49.576;11.024;2023-01-16T01:45:55;97106.75;;;3.39;71.30
72587;BME280;60621;49.576;11.024;2023-01-16T01:46:57;97097.19;;;3.43;70.80
72587;BME280;60621;49.576;11.024;2023-01-16T01:48:15;97101.78;;;3.49;70.73
72587;BME280;60621;49.576;11.024;2023-01-16T01:49:29;97086.34;;;3.56;70.00
72587;BME280;60621;49.576;11.024;2023-01-16T01:51:45;97088.25;;;3.59;69.62
72587;BME280;60621;49.576;11.024;2023-01-16T01:52:47;97089.69;;;3.57;69.99
72587;BME280;60621;49.576;11.024;2023-01-16T01:53:51;97081.88;;;3.57;69.90
72587;BME280;60621;49.576;11.024;2023-01-16T01:54:57;97096.16;;;3.47;69.33
72587;BME280;60621;49.576;11.024;2023-01-16T01:56:26;97088.59;;;3.42;70.18
72587;BME280;60621;49.576;11.024;2023-01-16T01:57:35;97084.63;;;3.48;70.54
72587;BME280;60621;49.576;11.024;2023-01-16T01:58:38;97077.97;;;3.51;70.07
72587;BME280;60621;49.576;11.024;2023-01-16T01:59:44;97081.88;;;3.57;70.31
72587;BME280;60621;49.576;11.024;2023-01-16T02:00:49;97078.66;;;3.48;69.27
72587;BME280;60621;49.576;11.024;2023-01-16T02:01:53;97078.22;;;3.46;69.60
72587;BME280;60621;49.576;11.024;2023-01-16T02:03:08;97077.66;;;3.52;70.28
72587;BME280;60621;49.576;11.024;2023-01-16T02:04:29;97082.38;;;3.47;69.76
72587;BME280;60621;49.576;11.024;2023-01-16T02:05:37;97073.28;;;3.41;70.61
72587;BME280;60621;49.576;11.024;2023-01-16T02:06:51;97065.13;;;3.42;70.48
72587;BME280;60621;49.576;11.024;2023-01-16T02:07:54;97056.72;;;3.49;70.33
72587;BME280;60621;49.576;11.024;2023-01-16T02:08:56;97053.94;;;3.42;70.46
72587;BME280;60621;49.576;11.024;2023-01-16T02:10:20;97054.84;;;3.49;70.76
72587;BME280;60621;49.576;11.024;2023-01-16T02:12:57;97046.13;;;3.26;70.40
72587;BME280;60621;49.576;11.024;2023-01-16T02:15:09;97040.75;;;3.34;71.41
72587;BME280;60621;49.576;11.024;2023-01-16T02:16:10;97039.31;;;3.37;71.22
72587;BME280;60621;49.576;11.024;2023-01-16T02:17:30;97028.97;;;3.25;70.51
72587;BME280;60621;49.576;11.024;2023-01-16T02:18:50;97025.16;;;3.22;71.64
72587;BME280;60621;49.576;11.024;2023-01-16T02:20:18;97019.03;;;3.30;70.74
72587;BME280;60621;49.576;11.024;2023-01-16T02:29:09;97019.53;;;3.52;70.56
72587;BME280;60621;49.576;11.024;2023-01-16T02:30:34;97012.66;;;3.44;70.64
72587;BME280;60621;49.576;11.024;2023-01-16T02:31:43;97009.97;;;3.24;70.84
72587;BME280;60621;49.576;11.024;2023-01-16T02:32:55;96999.94;;;3.26;70.98
72587;BME280;60621;49.576;11.024;2023-01-16T02:34:24;97004.47;;;3.45;70.49
72587;BME280;60621;49.576;11.024;2023-01-16T02:35:45;96999.97;;;3.42;70.74
72587;BME280;60621;49.576;11.024;2023-01-16T02:38:21;96994.16;;;3.33;70.84
72587;BME280;60621;49.576;11.024;2023-01-16T02:40:51;96988.09;;;3.29;71.53
72587;BME280;60621;49.576;11.024;2023-01-16T02:42:10;96980.78;;;3.34;71.15
72587;BME280;60621;49.576;11.024;2023-01-16T02:44:52;96977.44;;;3.18;71.32
72587;BME280;60621;49.576;11.024;2023-01-16T02:46:09;96975.91;;;3.17;71.47
72587;BME280;60621;49.576;11.024;2023-01-16T02:47:24;96967.34;;;3.17;71.26
72587;BME280;60621;49.576;11.024;2023-01-16T02:48:37;96967.03;;;3.18;70.93
72587;BME280;60621;49.576;11.024;2023-01-16T02:49:48;96964.09;;;3.04;71.63
72587;BME280;60621;49.576;11.024;2023-01-16T02:51:03;96964.50;;;3.06;71.69
72587;BME280;60621;49.576;11.024;2023-01-16T02:52:13;96963.75;;;3.05;72.13
72587;BME280;60621;49.576;11.024;2023-01-16T02:53:48;96959.03;;;3.11;71.93
72587;BME280;60621;49.576;11.024;2023-01-16T02:56:19;96942.16;;;3.05;71.76
72587;BME280;60621;49.576;11.024;2023-01-16T02:57:23;96950.47;;;3.11;71.92
72587;BME280;60621;49.576;11.024;2023-01-16T02:58:31;96951.88;;;3.08;71.61
72587;BME280;60621;49.576;11.024;2023-01-16T02:59:33;96944.31;;;3.03;72.02
72587;BME280;60621;49.576;11.024;2023-01-16T03:00:35;96933.84;;;2.99;71.95
72587;BME280;60621;49.576;11.024;2023-01-16T03:01:37;96939.13;;;2.87;72.20
72587;BME280;60621;49.576;11.024;2023-01-16T03:02:42;96939.78;;;2.84;72.92
72587;BME280;60621;49.576;11.024;2023-01-16T03:04:03;96941.88;;;2.94;72.43
72587;BME280;60621;49.576;11.024;2023-01-16T03:05:05;96931.41;;;2.91;72.70
72587;BME280;60621;49.576;11.024;2023-01-16T03:10:26;96924.91;;;2.85;72.83
72587;BME280;60621;49.576;11.024;2023-01-16T03:11:37;96926.84;;;2.88;72.48
72587;BME280;60621;49.576;11.024;2023-01-16T03:14:19;96916.66;;;2.98;72.37
72587;BME280;60621;49.576;11.024;2023-01-16T03:15:34;96912.56;;;2.97;72.27
72587;BME280;60621;49.576;11.024;2023-01-16T03:19:42;96903.72;;;3.02;72.09
72587;BME280;60621;49.576;11.024;2023-01-16T03:23:52;96902.06;;;3.10;71.65
72587;BME280;60621;49.576;11.024;2023-01-16T03:25:02;96902.63;;;3.03;71.12
72587;BME280;60621;49.576;11.024;2023-01-16T03:26:47;96901.31;;;3.09;72.01
72587;BME280;60621;49.576;11.024;2023-01-16T03:27:55;96899.13;;;2.95;71.86
72587;BME280;60621;49.576;11.024;2023-01-16T03:29:07;96889.47;;;2.96;72.22
72587;BME280;60621;49.576;11.024;2023-01-16T03:31:27;96886.06;;;3.11;71.42
72587;BME280;60621;49.576;11.024;2023-01-16T03:32:38;96880.59;;;3.16;71.83
72587;BME280;60621;49.576;11.024;2023-01-16T03:33:48;96884.72;;;3.17;71.09
72587;BME280;60621;49.576;11.024;2023-01-16T03:36:12;96873.25;;;3.22;71.39
72587;BME280;60621;49.576;11.024;2023-01-16T03:37:28;96863.09;;;3.17;71.00
72587;BME280;60621;49.576;11.024;2023-01-16T03:38:32;96858.47;;;3.26;71.22
72587;BME280;60621;49.576;11.024;2023-01-16T03:39:39;96856.28;;;3.28;71.05
72587;BME280;60621;49.576;11.024;2023-01-16T03:40:44;96850.06;;;3.17;71.13
72587;BME280;60621;49.576;11.024;2023-01-16T03:41:49;96846.38;;;3.18;71.21
72587;BME280;60621;49.576;11.024;2023-01-16T03:42:57;96834.34;;;3.29;73.39
72587;BME280;60621;49.576;11.024;2023-01-16T03:44:06;96831.59;;;3.41;72.46
72587;BME280;60621;49.576;11.024;2023-01-16T03:45:21;96824.84;;;3.21;71.56
72587;BME280;60621;49.576;11.024;2023-01-16T03:46:27;96825.31;;;3.07;71.68
72587;BME280;60621;49.576;11.024;2023-01-16T03:47:35;96823.25;;;2.97;72.22
72587;BME280;60621;49.576;11.024;2023-01-16T03:50:00;96812.31;;;2.91;72.42
72587;BME280;60621;49.576;11.024;2023-01-16T03:51:08;96805.28;;;2.92;72.35
72587;BME280;60621;49.576;11.024;2023-01-16T03:52:13;96801.81;;;2.88;71.70
72587;BME280;60621;49.576;11.024;2023-01-16T03:53:19;96798.78;;;3.01;71.36
72587;BME280;60621;49.576;11.024;2023-01-16T03:57:25;96795.03;;;2.83;71.41
72587;BME280;60621;49.576;11.024;2023-01-16T03:58:31;96791.66;;;2.82;72.12
72587;BME280;60621;49.576;11.024;2023-01-16T03:59:35;96781.16;;;2.95;71.75
72587;BME280;60621;49.576;11.024;2023-01-16T04:00:54;96788.53;;;2.93;71.62
72587;BME280;60621;49.576;11.024;2023-01-16T04:02:03;96782.19;;;2.90;71.46
72587;BME280;60621;49.576;11.024;2023-01-16T04:03:08;96771.31;;;2.88;71.22
72587;BME280;60621;49.576;11.024;2023-01-16T04:04:17;96776.06;;;3.02;70.62
72587;BME280;60621;49.576;11.024;2023-01-16T04:05:30;96775.41;;;3.05;70.27
72587;BME280;60621;49.576;11.024;2023-01-16T04:06:43;96778.94;;;2.97;70.59
72587;BME280;60621;49.576;11.024;2023-01-16T04:07:59;96774.09;;;2.79;70.96
72587;BME280;60621;49.576;11.024;2023-01-16T04:09:08;96775.06;;;2.71;71.56
72587;BME280;60621;49.576;11.024;2023-01-16T04:10:18;96774.09;;;2.79;71.31
72587;BME280;60621;49.576;11.024;2023-01-16T04:11:23;96773.25;;;2.91;70.84
72587;BME280;60621;49.576;11.024;2023-01-16T04:12:33;96779.31;;;2.95;70.50
72587;BME280;60621;49.576;11.024;2023-01-16T04:13:38;96774.28;;;2.87;71.23
72587;BME280;60621;49.576;11.024;2023-01-16T04:14:41;96769.16;;;2.90;71.13
72587;BME280;60621;49.576;11.024;2023-01-16T04:15:50;96766.81;;;2.85;70.99
72587;BME280;60621;49.576;11.024;2023-01-16T04:16:53;96766.38;;;2.83;71.21
72587;BME280;60621;49.576;11.024;2023-01-16T04:17:55;96760.50;;;2.86;70.94
72587;BME280;60621;49.576;11.024;2023-01-16T04:18:57;96764.25;;;2.89;70.76
72587;BME280;60621;49.576;11.024;2023-01-16T04:19:59;96757.19;;;2.89;71.18
72587;BME280;60621;49.576;11.024;2023-01-16T04:21:06;96763.50;;;2.88;70.94
72587;BME280;60621;49.576;11.024;2023-01-16T04:22:18;96762.69;;;2.84;71.14
72587;BME280;60621;49.576;11.024;2023-01-16T04:23:20;96758.19;;;3.00;70.54
72587;BME280;60621;49.576;11.024;2023-01-16T04:24:22;96757.16;;;3.05;69.94
72587;BME280;60621;49.576;11.024;2023-01-16T04:25:24;96759.53;;;2.94;70.52
72587;BME280;60621;49.576;11.024;2023-01-16T04:26:25;96753.91;;;2.73;71.22
72587;BME280;60621;49.576;11.024;2023-01-16T04:27:27;96753.78;;;2.85;70.75
72587;BME280;60621;49.576;11.024;2023-01-16T04:28:28;96750.47;;;2.88;70.83
72587;BME280;60621;49.576;11.024;2023-01-16T04:29:30;96745.75;;;2.94;70.52
72587;BME280;60621;49.576;11.024;2023-01-16T04:30:32;96751.41;;;2.96;70.17
72587;BME280;60621;49.576;11.024;2023-01-16T04:31:34;96741.91;;;2.88;70.51
72587;BME280;60621;49.576;11.024;2023-01-16T04:32:36;96747.13;;;2.88;70.96
72587;BME280;60621;49.576;11.024;2023-01-16T04:33:38;96741.31;;;2.94;70.20
72587;BME280;60621;49.576;11.024;2023-01-16T04:34:39;96736.25;;;3.01;69.96
72587;BME280;60621;49.576;11.024;2023-01-16T04:35:40;96739.69;;;3.05;70.04
72587;BME280;60621;49.576;11.024;2023-01-16T04:36:42;96729.19;;;3.02;70.40
72587;BME280;60621;49.576;11.024;2023-01-16T04:37:43;96723.16;;;2.98;70.20
72587;BME280;60621;49.576;11.024;2023-01-16T04:38:45;96730.28;;;3.01;69.90
72587;BME280;60621;49.576;11.024;2023-01-16T04:39:46;96719.88;;;3.01;70.08
72587;BME280;60621;49.576;11.024;2023-01-16T04:40:52;96728.63;;;3.12;70.34
72587;BME280;60621;49.576;11.024;2023-01-16T04:41:54;96713.75;;;3.13;69.67
72587;BME280;60621;49.576;11.024;2023-01-16T04:42:55;96716.78;;;3.15;69.96
72587;BME280;60621;49.576;11.024;2023-01-16T04:43:57;96715.47;;;3.05;69.98
72587;BME280;60621;49.576;11.024;2023-01-16T04:44:58;96719.38;;;2.95;71.20
72587;BME280;60621;49.576;11.024;2023-01-16T04:46:00;96722.13;;;3.02;70.72
72587;BME280;60621;49.576;11.024;2023-01-16T04:47:02;96721.09;;;3.07;70.26
72587;BME280;60621;49.576;11.024;2023-01-16T04:48:03;96717.00;;;3.06;70.16
72587;BME280;60621;49.576;11.024;2023-01-16T04:49:05;96707.88;;;3.16;69.09
72587;BME280;60621;49.576;11.024;2023-01-16T04:50:07;96708.22;;;3.14;69.04
72587;BME280;60621;49.576;11.024;2023-01-16T04:51:09;96711.16;;;2.93;70.38
72587;BME280;60621;49.576;11.024;2023-01-16T04:52:12;96707.44;;;2.94;70.35
72587;BME280;60621;49.576;11.024;2023-01-16T04:53:14;96694.91;;;2.80;70.64
72587;BME280;60621;49.576;11.024;2023-01-16T04:54:17;96696.41;;;2.46;71.48
72587;BME280;60621;49.576;11.024;2023-01-16T04:55:19;96698.34;;;2.49;72.08
72587;BME280;60621;49.576;11.024;2023-01-16T04:56:22;96691.56;;;2.45;72.26
72587;BME280;60621;49.576;11.024;2023-01-16T04:57:23;96690.72;;;2.41;72.80
72587;BME280;60621;49.576;11.024;2023-01-16T04:58:24;96688.50;;;2.23;72.54
72587;BME280;60621;49.576;11.024;2023-01-16T04:59:27;96688.91;;;2.25;72.49
72587;BME280;60621;49.576;11.024;2023-01-16T05:00:28;96687.56;;;2.31;72.81
72587;BME280;60621;49.576;11.024;2023-01-16T05:01:30;96679.47;;;2.37;72.62
72587;BME280;60621;49.576;11.024;2023-01-16T05:02:36;96683.22;;;2.20;72.73
72587;BME280;60621;49.576;11.024;2023-01-16T05:03:38;96677.75;;;2.25;73.03
72587;BME280;60621;49.576;11.024;2023-01-16T05:04:39;96674.28;;;2.37;72.24
72587;BME280;60621;49.576;11.024;2023-01-16T05:05:42;96679.47;;;2.37;72.46
72587;BME280;60621;49.576;11.024;2023-01-16T05:06:43;96673.19;;;2.38;72.02
72587;BME280;60621;49.576;11.024;2023-01-16T05:07:45;96668.34;;;2.20;73.27
72587;BME280;60621;49.576;11.024;2023-01-16T05:08:46;96665.41;;;2.22;72.59
72587;BME280;60621;49.576;11.024;2023-01-16T05:09:48;96660.22;;;2.22;72.95
72587;BME280;60621;49.576;11.024;2023-01-16T05:10:50;96661.72;;;2.23;72.93
72587;BME280;60621;49.576;11.024;2023-01-16T05:11:51;96658.31;;;2.19;73.04
72587;BME280;60621;49.576;11.024;2023-01-16T05:12:53;96653.41;;;2.33;72.16
72587;BME280;60621;49.576;11.024;2023-01-16T05:13:54;96655.97;;;2.14;73.21
72587;BME280;60621;49.576;11.024;2023-01-16T05:14:55;96665.97;;;1.96;73.74
72587;BME280;60621;49.576;11.024;2023-01-16T05:15:57;96658.41;;;1.91;74.73
72587;BME280;60621;49.576;11.024;2023-01-16T05:16:58;96654.53;;;2.00;73.38
72587;BME280;60621;49.576;11.024;2023-01-16T05:18:00;96653.09;;;2.03;73.58
72587;BME280;60621;49.576;11.024;2023-01-16T05:19:02;96647.91;;;2.03;73.44
72587;BME280;60621;49.576;11.024;2023-01-16T05:20:04;96650.84;;;2.01;73.57
72587;BME280;60621;49.576;11.024;2023-01-16T05:21:06;96649.09;;;1.90;74.28
72587;BME280;60621;49.576;11.024;2023-01-16T05:22:07;96641.47;;;1.97;73.59
72587;BME280;60621;49.576;11.024;2023-01-16T05:23:09;96638.19;;;2.00;73.51
72587;BME280;60621;49.576;11.024;2023-01-16T05:24:11;96643.53;;;2.07;73.93
72587;BME280;60621;49.576;11.024;2023-01-16T05:25:13;96634.38;;;2.13;73.41
72587;BME280;60621;49.576;11.024;2023-01-16T05:26:14;96635.56;;;2.16;73.07
72587;BME280;60621;49.576;11.024;2023-01-16T05:27:16;96635.78;;;2.26;72.95
72587;BME280;60621;49.576;11.024;2023-01-16T05:28:17;96630.50;;;2.23;72.93
72587;BME280;60621;49.576;11.024;2023-01-16T05:29:19;96626.13;;;2.27;72.67
72587;BME280;60621;49.576;11.024;2023-01-16T05:30:21;96629.97;;;2.33;72.38
72587;BME280;60621;49.576;11.024;2023-01-16T05:31:22;96629.63;;;2.35;72.53
72587;BME280;60621;49.576;11.024;2023-01-16T05:32:24;96628.16;;;2.18;73.12
72587;BME280;60621;49.576;11.024;2023-01-16T05:33:25;96622.53;;;2.16;72.66
72587;BME280;60621;49.576;11.024;2023-01-16T05:34:27;96622.53;;;2.16;73.18
72587;BME280;60621;49.576;11.024;2023-01-16T05:35:28;96615.09;;;2.14;72.83
72587;BME280;60621;49.576;11.024;2023-01-16T05:36:30;96615.91;;;2.18;72.95
72587;BME280;60621;49.576;11.024;2023-01-16T05:37:31;96612.22;;;2.19;72.95
72587;BME280;60621;49.576;11.024;2023-01-16T05:38:33;96609.75;;;2.26;72.41
72587;BME280;60621;49.576;11.024;2023-01-16T05:39:34;96601.13;;;2.22;72.64
72587;BME280;60621;49.576;11.024;2023-01-16T05:40:36;96603.59;;;2.15;72.59
72587;BME280;60621;49.576;11.024;2023-01-16T05:41:38;96598.72;;;2.14;72.70
72587;BME280;60621;49.576;11.024;2023-01-16T05:42:42;96608.47;;;2.01;73.24
72587;BME280;60621;49.576;11.024;2023-01-16T05:43:43;96599.50;;;1.98;73.29
72587;BME280;60621;49.576;11.024;2023-01-16T05:44:45;96598.00;;;1.97;72.98
72587;BME280;60621;49.576;11.024;2023-01-16T05:45:46;96598.16;;;1.89;73.24
72587;BME280;60621;49.576;11.024;2023-01-16T05:46:48;96596.41;;;1.93;73.58
72587;BME280;60621;49.576;11.024;2023-01-16T05:47:52;96591.69;;;1.98;73.26
72587;BME280;60621;49.576;11.024;2023-01-16T05:48:53;96595.56;;;2.04;73.08
72587;BME280;60621;49.576;11.024;2023-01-16T05:49:55;96585.44;;;1.99;73.22
72587;BME280;60621;49.576;11.024;2023-01-16T05:51:03;96585.81;;;2.01;73.41
72587;BME280;60621;49.576;11.024;2023-01-16T05:52:05;96588.16;;;2.07;73.28
72587;BME280;60621;49.576;11.024;2023-01-16T05:53:06;96588.91;;;2.07;72.98
72587;BME280;60621;49.576;11.024;2023-01-16T05:54:10;96594.28;;;1.98;73.60
72587;BME280;60621;49.576;11.024;2023-01-16T05:55:12;96589.25;;;2.05;73.11
72587;BME280;60621;49.576;11.024;2023-01-16T05:56:14;96581.53;;;2.09;73.00
72587;BME280;60621;49.576;11.024;2023-01-16T05:57:15;96581.28;;;2.14;72.91
72587;BME280;60621;49.576;11.024;2023-01-16T05:58:17;96579.38;;;2.30;72.34
72587;BME280;60621;49.576;11.024;2023-01-16T05:59:18;96576.50;;;2.36;71.97
72587;BME280;60621;49.576;11.024;2023-01-16T06:00:20;96578.81;;;2.41;72.02
72587;BME280;60621;49.576;11.024;2023-01-16T06:01:23;96572.88;;;2.40;71.16
72587;BME280;60621;49.576;11.024;2023-01-16T06:02:24;96581.22;;;2.30;72.14
72587;BME280;60621;49.576;11.024;2023-01-16T06:03:26;96571.47;;;2.27;72.08
72587;BME280;60621;49.576;11.024;2023-01-16T06:04:27;96580.47;;;2.29;71.92
72587;BME280;60621;49.576;11.024;2023-01-16T06:05:29;96577.25;;;2.36;71.74
72587;BME280;60621;49.576;11.024;2023-01-16T06:06:30;96579.44;;;2.34;71.87
72587;BME280;60621;49.576;11.024;2023-01-16T06:07:32;96575.81;;;2.39;71.54
72587;BME280;60621;49.576;11.024;2023-01-16T06:08:33;96571.63;;;2.34;71.63
72587;BME280;60621;49.576;11.024;2023-01-16T06:09:35;96572.56;;;2.26;71.83
72587;BME280;60621;49.576;11.024;2023-01-16T06:10:37;96564.63;;;2.19;72.72
72587;BME280;60621;49.576;11.024;2023-01-16T06:11:38;96567.16;;;2.15;72.62
72587;BME280;60621;49.576;11.024;2023-01-16T06:12:39;96574.63;;;2.17;72.83
72587;BME280;60621;49.576;11.024;2023-01-16T06:13:41;96564.09;;;2.10;73.58
72587;BME280;60621;49.576;11.024;2023-01-16T06:14:43;96561.97;;;2.15;72.67
72587;BME280;60621;49.576;11.024;2023-01-16T06:15:48;96551.91;;;2.14;72.61
72587;BME280;60621;49.576;11.024;2023-01-16T06:16:50;96543.31;;;2.13;72.72
72587;BME280;60621;49.576;11.024;2023-01-16T06:17:51;96541.97;;;2.19;72.23